Time;durP1;ratioP1;P1;durP2;ratioP2;P2;SDS_P1;SDS_P2;PMS_P1;PMS_P2;Temp;Humidity;BMP_temperature;BMP_pressure;BME280_temperature;BME280_humidity;BME280_pressure;Samples;Min_cycle;Max_cycle;Signal;HPM_P1;HPM_P2
2022/05/25 00:02:24;;;;;;;9.57;6.63;;;;;;;10.04;90.33;101167.22;5053506;28;20121;-84
2022/05/25 00:04:51;;;;;;;7.35;6.07;;;;;;;10.04;90.34;101176.91;5033605;28;20128;-84
2022/05/25 00:07:17;;;;;;;8.15;6.35;;;;;;;9.94;90.94;101176.63;5037365;28;20021;-89
2022/05/25 00:09:43;;;;;;;7.50;6.68;;;;;;;9.93;90.09;101169.69;5029927;28;20041;-84
2022/05/25 00:12:09;;;;;;;8.10;6.80;;;;;;;9.92;90.25;101178.53;5032831;28;20385;-84
2022/05/25 00:14:36;;;;;;;8.07;7.15;;;;;;;9.88;90.86;101170.94;5034044;28;20040;-84
2022/05/25 00:17:01;;;;;;;9.23;7.38;;;;;;;9.93;91.35;101171.47;5034016;28;20032;-85
2022/05/25 00:22:11;;;;;;;8.75;7.50;;;;;;;9.93;91.54;101180.22;5051279;28;20091;-84
2022/05/25 00:24:36;;;;;;;8.32;7.40;;;;;;;9.92;90.94;101175.06;5051616;28;20505;-84
2022/05/25 00:27:02;;;;;;;14.05;8.00;;;;;;;9.92;91.58;101181.16;5033750;28;20056;-90
2022/05/25 00:29:27;;;;;;;9.77;8.07;;;;;;;9.89;91.44;101181.34;5050751;28;20021;-84
2022/05/25 00:31:52;;;;;;;10.75;8.38;;;;;;;9.87;91.46;101180.63;5051182;28;20029;-84
2022/05/25 00:34:18;;;;;;;12.50;8.70;;;;;;;9.87;91.16;101187.66;5033108;28;20037;-84
2022/05/25 00:36:43;;;;;;;11.25;8.48;;;;;;;9.85;91.71;101182.50;5032661;28;20021;-84
2022/05/25 00:39:09;;;;;;;12.52;9.27;;;;;;;9.84;92.28;101180.81;5051832;28;20025;-91
2022/05/25 00:41:35;;;;;;;9.65;8.65;;;;;;;9.82;92.66;101182.72;5051545;28;20020;-89
2022/05/25 00:44:01;;;;;;;11.90;9.40;;;;;;;9.82;92.61;101182.72;5051894;28;20028;-90
2022/05/25 00:46:27;;;;;;;10.32;9.15;;;;;;;9.81;92.78;101180.19;5033050;28;20116;-84
2022/05/25 00:49:01;;;;;;;11.18;9.20;;;;;;;9.80;92.46;101184.59;5050141;28;20084;-84
2022/05/25 00:51:44;;;;;;;11.00;9.85;;;;;;;9.78;92.88;101196.16;5050751;28;20032;-84
2022/05/25 00:54:37;;;;;;;9.93;8.93;;;;;;;9.74;92.45;101201.59;5050528;28;20031;-90
2022/05/25 00:57:07;;;;;;;;;;;;;;;9.84;90.08;101196.59;5032289;28;20452;-90
2022/05/25 00:59:46;;;;;;;10.25;9.15;;;;;;;9.72;92.11;101197.41;5051160;28;20387;-89
2022/05/25 01:02:11;;;;;;;10.25;9.02;;;;;;;9.71;92.15;101195.72;5050450;28;20036;-89
2022/05/25 01:04:37;;;;;;;11.93;9.88;;;;;;;9.71;92.61;101199.19;5050198;28;20421;-84
2022/05/25 01:07:31;;;;;;;11.05;9.63;;;;;;;9.65;93.02;101204.00;5053687;28;20040;-84
2022/05/25 01:10:09;;;;;;;12.13;9.93;;;;;;;9.69;92.39;101208.09;5057420;28;20029;-89
2022/05/25 01:13:07;;;;;;;10.70;9.65;;;;;;;9.63;93.02;101209.34;5034807;28;20029;-84
2022/05/25 01:16:04;;;;;;;11.55;10.35;;;;;;;9.62;93.22;101207.66;5032930;28;20485;-85
2022/05/25 01:18:41;;;;;;;13.85;10.23;;;;;;;9.62;93.43;101206.81;5032290;28;20048;-85
2022/05/25 01:21:55;;;;;;;11.65;10.45;;;;;;;9.62;92.64;101204.19;5050722;28;20074;-90
2022/05/25 01:25:04;;;;;;;12.25;9.95;;;;;;;9.59;93.24;101207.00;4932909;29;20031;-84
2022/05/25 01:27:35;;;;;;;11.38;10.27;;;;;;;9.59;93.81;101205.19;4934260;28;1135718;-90
2022/05/25 01:30:12;;;;;;;12.20;10.45;;;;;;;9.56;93.33;101207.19;5018673;28;20571;-90
2022/05/25 01:32:52;;;;;;;11.23;9.98;;;;;;;9.54;93.14;101211.69;5032820;28;20036;-83
2022/05/25 01:35:47;;;;;;;12.40;11.10;;;;;;;9.53;93.46;101215.25;5052054;28;20112;-90
2022/05/25 01:38:32;;;;;;;11.68;10.50;;;;;;;9.49;93.49;101211.16;5004864;28;20062;-90
2022/05/25 01:41:20;;;;;;;11.07;9.98;;;;;;;9.48;93.14;101215.56;5050852;28;20037;-84
2022/05/25 01:43:54;;;;;;;14.63;10.88;;;;;;;9.46;93.50;101211.34;5034088;28;20036;-90
2022/05/25 01:46:25;;;;;;;11.45;10.27;;;;;;;9.44;93.56;101221.94;5032743;28;20512;-84
2022/05/25 01:48:53;;;;;;;11.88;10.55;;;;;;;9.44;93.65;101216.69;5033487;28;20036;-84
2022/05/25 01:51:27;;;;;;;13.27;11.23;;;;;;;9.39;93.75;101214.38;5051442;28;20044;-84
2022/05/25 01:53:58;;;;;;;13.05;11.40;;;;;;;9.32;94.23;101218.31;5032636;28;20032;-90
2022/05/25 01:56:27;;;;;;;12.77;11.02;;;;;;;9.33;94.05;101217.38;5049023;28;20024;-83
2022/05/25 01:58:55;;;;;;;13.10;11.13;;;;;;;9.35;94.53;101219.91;5031059;28;20120;-84
2022/05/25 02:01:21;;;;;;;14.40;11.68;;;;;;;9.32;93.72;101220.09;5026478;28;20029;-84
2022/05/25 02:06:55;;;;;;;12.70;11.23;;;;;;;9.33;94.28;101220.00;5039920;28;20031;-83
2022/05/25 02:09:56;;;;;;;11.77;10.57;;;;;;;9.33;94.01;101217.38;5034282;28;20481;-91
2022/05/25 02:12:49;;;;;;;11.98;10.80;;;;;;;9.32;94.04;101226.19;5033902;28;20545;-82
2022/05/25 02:15:45;;;;;;;13.18;11.82;;;;;;;9.28;94.01;101226.50;5027868;28;20036;-91
2022/05/25 02:18:32;;;;;;;12.85;11.43;;;;;;;9.26;94.61;101231.00;5012542;28;20029;-82
2022/05/25 02:21:10;;;;;;;13.90;10.95;;;;;;;9.22;94.12;101226.88;5011539;28;20051;-82
2022/05/25 02:23:46;;;;;;;12.13;10.80;;;;;;;9.21;94.33;101223.41;5012426;28;20017;-84
2022/05/25 02:26:28;;;;;;;12.38;11.10;;;;;;;9.17;94.17;101232.38;5012487;28;20467;-90
2022/05/25 02:29:06;;;;;;;13.02;11.55;;;;;;;9.17;94.29;101231.53;5015791;28;20029;-83
2022/05/25 02:31:36;;;;;;;12.70;11.40;;;;;;;9.13;94.84;101236.13;5032575;28;20036;-90
2022/05/25 02:34:04;;;;;;;14.30;11.15;;;;;;;9.10;94.51;101236.31;5031881;28;20025;-83
2022/05/25 02:36:34;;;;;;;13.38;11.30;;;;;;;9.09;94.57;101239.91;5031502;28;20024;-83
2022/05/25 02:39:03;;;;;;;13.30;11.48;;;;;;;9.02;94.70;101239.44;5029069;28;20065;-92
2022/05/25 02:41:31;;;;;;;11.68;10.57;;;;;;;9.09;94.67;101247.75;5038040;28;20469;-84
2022/05/25 02:43:58;;;;;;;12.55;11.10;;;;;;;9.03;94.34;101240.28;5049977;28;20039;-84
2022/05/25 02:46:23;;;;;;;11.82;10.73;;;;;;;9.02;94.77;101243.84;5032270;28;20429;-92
2022/05/25 02:48:49;;;;;;;12.60;10.40;;;;;;;9.02;94.31;101249.09;5031602;28;20055;-92
2022/05/25 02:51:14;;;;;;;14.40;10.23;;;;;;;9.02;94.21;101246.47;5033028;28;20477;-92
2022/05/25 02:53:40;;;;;;;12.45;10.82;;;;;;;8.92;94.40;101247.97;5032354;28;20408;-91
2022/05/25 02:56:06;;;;;;;12.48;10.63;;;;;;;9.00;94.48;101248.34;5049389;28;20047;-84
2022/05/25 02:58:31;;;;;;;12.93;10.23;;;;;;;8.98;94.67;101253.69;5050057;28;20032;-82
2022/05/25 03:00:57;;;;;;;13.13;9.95;;;;;;;8.99;94.44;101249.28;5040265;28;20028;-85
2022/05/25 03:03:23;;;;;;;11.15;10.02;;;;;;;8.98;94.51;101255.47;5029289;28;20821;-82
2022/05/25 03:05:48;;;;;;;13.88;9.68;;;;;;;8.97;94.36;101251.16;5030496;28;20096;-90
2022/05/25 03:08:14;;;;;;;10.90;9.80;;;;;;;8.98;94.36;101255.47;5036770;28;20029;-85
2022/05/25 03:10:42;;;;;;;12.60;9.13;;;;;;;8.98;94.34;101258.09;5031032;28;20028;-84
2022/05/25 03:13:09;;;;;;;10.75;8.85;;;;;;;8.93;94.18;101263.63;5049149;28;20074;-84
2022/05/25 03:15:35;;;;;;;9.48;8.55;;;;;;;8.93;94.15;101266.25;5032292;28;20020;-84
2022/05/25 03:18:00;;;;;;;10.85;9.23;;;;;;;8.89;94.41;101266.53;5047576;28;20535;-84
2022/05/25 03:20:27;;;;;;;9.88;8.88;;;;;;;8.91;94.32;101267.28;5031890;28;20033;-84
2022/05/25 03:22:52;;;;;;;11.40;8.55;;;;;;;8.90;93.95;101270.84;5049749;28;20024;-93
2022/05/25 03:25:18;;;;;;;9.48;8.52;;;;;;;8.86;94.04;101261.47;5033321;28;20017;-84
2022/05/25 03:27:44;;;;;;;11.27;8.52;;;;;;;8.85;94.14;101263.25;5031850;28;20503;-84
2022/05/25 03:30:10;;;;;;;12.82;8.43;;;;;;;8.85;93.88;101262.41;5033578;28;20028;-93
2022/05/25 03:32:36;;;;;;;14.57;8.73;;;;;;;8.85;94.39;101271.13;5049269;28;20025;-84
2022/05/25 03:35:02;;;;;;;11.43;8.50;;;;;;;8.88;94.29;101267.47;5048998;28;20027;-83
2022/05/25 03:37:28;;;;;;;12.65;9.05;;;;;;;8.79;94.12;101269.66;5047743;28;20025;-84
2022/05/25 03:39:53;;;;;;;9.95;8.40;;;;;;;8.79;94.61;101272.28;5048734;28;20108;-82
2022/05/25 03:42:19;;;;;;;11.38;8.80;;;;;;;8.78;94.20;101283.72;5049005;28;20524;-83
2022/05/25 03:44:45;;;;;;;12.25;8.85;;;;;;;8.82;94.65;101288.81;5051156;28;20116;-92
2022/05/25 03:47:10;;;;;;;12.48;9.32;;;;;;;8.75;94.72;101294.41;5049259;28;20114;-82
2022/05/25 03:49:36;;;;;;;12.77;8.82;;;;;;;8.77;94.62;101287.28;5045969;28;20068;-83
2022/05/25 03:52:03;;;;;;;11.98;8.45;;;;;;;8.79;94.91;101289.81;5047584;28;20036;-83
2022/05/25 03:54:28;;;;;;;12.60;8.90;;;;;;;8.77;94.62;101287.28;5030567;28;20029;-83
2022/05/25 03:56:54;;;;;;;10.23;8.27;;;;;;;8.75;94.87;101299.66;5048329;28;20047;-82
2022/05/25 03:59:19;;;;;;;12.02;8.65;;;;;;;8.81;94.50;101298.47;5047539;28;20511;-82
2022/05/25 04:01:45;;;;;;;12.23;8.40;;;;;;;8.78;95.23;101296.84;5013288;28;20477;-82
2022/05/25 04:04:10;;;;;;;12.75;8.20;;;;;;;8.81;95.04;101302.88;5045142;28;20017;-82
2022/05/25 04:06:35;;;;;;;11.45;8.95;;;;;;;8.90;95.75;101304.94;5036303;28;20032;-83
2022/05/25 04:09:02;;;;;;;10.50;7.85;;;;;;;9.46;94.36;101305.91;5028961;28;20029;-83
2022/05/25 04:11:27;;;;;;;14.63;7.63;;;;;;;10.22;90.94;101303.69;5050911;28;20029;-94
2022/05/25 04:13:53;;;;;;;9.77;6.43;;;;;;;10.84;87.71;101299.53;5049415;28;20033;-93
2022/05/25 04:16:18;;;;;;;8.77;5.55;;;;;;;11.68;82.78;101296.31;5049855;28;20036;-93
2022/05/25 04:18:44;;;;;;;7.65;6.05;;;;;;;12.10;80.01;101304.75;5051295;28;20067;-93
2022/05/25 04:21:09;;;;;;;8.98;5.60;;;;;;;11.71;80.56;101303.16;5049836;28;20029;-84
2022/05/25 04:23:34;;;;;;;6.80;5.65;;;;;;;11.41;81.57;101306.16;5029710;28;20017;-91
2022/05/25 04:26:00;;;;;;;7.22;5.95;;;;;;;10.94;82.75;101305.84;5031943;28;20049;-92
2022/05/25 04:28:25;;;;;;;9.18;6.18;;;;;;;10.67;84.51;101303.28;5031718;28;20021;-93
2022/05/25 04:30:50;;;;;;;11.60;6.35;;;;;;;10.63;84.58;101312.34;5031479;28;20056;-85
2022/05/25 04:33:19;;;;;;;7.53;6.18;;;;;;;10.35;85.74;101308.03;5034026;28;20056;-84
2022/05/25 04:35:45;;;;;;;7.90;6.45;;;;;;;10.23;86.87;101308.84;5052304;28;20086;-84
2022/05/25 04:38:14;;;;;;;8.73;6.60;;;;;;;10.17;87.56;101306.59;5048767;28;20025;-84
2022/05/25 04:40:42;;;;;;;9.63;6.88;;;;;;;10.09;87.55;101311.50;5035222;28;20385;-84
2022/05/25 04:43:12;;;;;;;8.40;6.57;;;;;;;9.99;88.58;101313.03;5021070;28;20021;-92
2022/05/25 04:45:39;;;;;;;9.95;6.80;;;;;;;9.90;89.00;101322.34;5052177;28;20148;-82
2022/05/25 04:48:05;;;;;;;8.75;6.60;;;;;;;9.87;89.47;101312.03;5042429;28;20086;-91
2022/05/25 04:50:36;;;;;;;10.68;6.70;;;;;;;9.85;90.10;101324.44;5053023;28;20025;-83
2022/05/25 04:53:02;;;;;;;11.48;6.80;;;;;;;9.83;90.06;101317.59;5052339;28;20056;-83
2022/05/25 04:58:24;;;;;;;10.63;6.70;;;;;;;9.78;90.95;101328.38;5052747;28;20047;-83
2022/05/25 05:00:50;;;;;;;9.63;6.78;;;;;;;9.74;91.61;101326.91;5052353;28;20025;-92
2022/05/25 05:03:16;;;;;;;8.75;6.78;;;;;;;9.72;92.02;101334.88;5051642;28;20407;-83
2022/05/25 05:05:42;;;;;;;7.97;6.55;;;;;;;9.73;92.01;101330.47;5052136;28;20366;-93
2022/05/25 05:08:08;;;;;;;12.02;7.05;;;;;;;9.75;92.41;101333.84;5030565;28;20032;-83
2022/05/25 05:10:33;;;;;;;12.77;7.05;;;;;;;9.74;93.25;101332.16;5014175;28;20065;-93
2022/05/25 05:12:59;;;;;;;12.20;7.53;;;;;;;9.73;93.04;101333.09;5051358;28;20317;-84
2022/05/25 05:15:24;;;;;;;14.77;6.70;;;;;;;9.78;92.77;101338.91;5033782;28;20116;-92
2022/05/25 05:17:49;;;;;;;10.77;7.03;;;;;;;9.81;92.99;101335.22;5031853;28;20040;-84
2022/05/25 05:20:15;;;;;;;9.32;6.82;;;;;;;9.81;93.25;101333.44;5033066;28;20449;-83
2022/05/25 05:22:40;;;;;;;8.82;6.57;;;;;;;9.85;92.92;101329.69;5034655;28;20068;-93
2022/05/25 05:25:09;;;;;;;8.98;6.60;;;;;;;9.90;93.35;101327.59;5033233;28;20484;-84
2022/05/25 05:27:34;;;;;;;13.93;7.25;;;;;;;9.92;93.53;101323.09;5031304;28;20029;-83
2022/05/25 05:30:03;;;;;;;18.42;7.63;;;;;;;9.98;93.26;101321.84;5031265;28;20082;-84
2022/05/25 05:32:31;;;;;;;12.23;7.60;;;;;;;10.04;93.26;101322.31;5051055;28;20017;-83
2022/05/25 05:34:58;;;;;;;10.68;7.60;;;;;;;10.10;93.89;101320.25;5032004;28;20280;-83
2022/05/25 05:37:31;;;;;;;10.13;7.00;;;;;;;10.13;93.56;101317.41;5026050;28;20190;-84
2022/05/25 05:39:57;;;;;;;13.82;6.80;;;;;;;10.18;93.71;101315.34;5029399;28;20062;-83
2022/05/25 05:42:25;;;;;;;14.80;7.68;;;;;;;10.24;93.77;101313.19;5017658;28;20022;-83
2022/05/25 05:44:58;;;;;;;12.77;7.32;;;;;;;10.28;93.38;101309.41;4996039;28;20013;-84
2022/05/25 05:47:28;;;;;;;13.07;7.57;;;;;;;10.33;92.89;101309.09;5031057;28;20079;-84
2022/05/25 05:49:54;;;;;;;12.20;8.02;;;;;;;10.38;93.03;101314.06;5031893;28;20091;-84
2022/05/25 05:52:19;;;;;;;18.60;7.65;;;;;;;10.42;93.31;101311.16;5045465;28;20389;-92
2022/05/25 05:54:45;;;;;;;9.52;7.50;;;;;;;10.48;92.78;101302.84;5033461;28;20037;-92
2022/05/25 05:57:12;;;;;;;11.07;7.88;;;;;;;10.54;92.75;101312.13;5057352;28;20024;-85
2022/05/25 05:59:38;;;;;;;14.55;7.80;;;;;;;10.57;92.63;101323.28;5048057;28;20127;-82
2022/05/25 06:02:06;;;;;;;13.70;7.80;;;;;;;10.63;92.67;101328.13;5029394;28;20070;-83
2022/05/25 06:04:31;;;;;;;12.95;7.63;;;;;;;10.66;91.91;101322.66;5063454;28;20044;-83
2022/05/25 06:06:57;;;;;;;14.55;7.82;;;;;;;10.72;91.66;101321.41;5049632;28;20036;-83
2022/05/25 06:09:22;;;;;;;15.80;8.02;;;;;;;10.80;92.18;101326.16;5050126;28;20491;-82
2022/05/25 06:11:48;;;;;;;14.63;8.20;;;;;;;10.84;92.00;101330.28;5049596;28;20040;-84
2022/05/25 06:14:13;;;;;;;12.00;8.18;;;;;;;10.92;92.13;101327.97;5017979;28;20108;-84
2022/05/25 06:19:25;;;;;;;15.95;8.13;;;;;;;11.08;90.98;101338.28;5049393;28;20039;-83
2022/05/25 06:22:07;;;;;;;12.60;7.90;;;;;;;11.14;90.43;101336.09;5033039;28;20450;-89
2022/05/25 06:24:40;;;;;;;14.23;8.43;;;;;;;11.23;90.54;101351.28;5030767;28;20021;-84
2022/05/25 06:27:08;;;;;;;13.43;8.93;;;;;;;11.34;90.74;101352.31;5049207;28;20053;-84
2022/05/25 06:29:37;;;;;;;12.30;8.63;;;;;;;11.45;89.92;101355.06;5049735;28;20025;-80
2022/05/25 06:32:07;;;;;;;12.02;8.63;;;;;;;11.57;89.47;101359.47;5047509;28;20021;-80
2022/05/25 06:34:33;;;;;;;14.18;9.32;;;;;;;11.69;89.23;101355.97;5011993;28;20338;-86
2022/05/25 06:36:58;;;;;;;13.75;9.95;;;;;;;11.79;89.03;101354.41;5038535;28;20031;-80
2022/05/25 06:39:24;;;;;;;12.23;9.45;;;;;;;11.93;88.17;101361.31;5011445;28;20029;-81
2022/05/25 06:41:49;;;;;;;18.80;11.13;;;;;;;12.03;88.43;101356.25;5010370;28;20021;-79
2022/05/25 06:44:17;;;;;;;15.57;12.20;;;;;;;12.03;86.52;101356.25;5034151;28;20055;-80
2022/05/25 06:46:42;;;;;;;21.85;15.43;;;;;;;12.09;86.38;101366.38;5027956;28;20033;-81
2022/05/25 06:49:08;;;;;;;19.90;14.20;;;;;;;12.14;86.03;101367.72;5028486;28;20137;-83
2022/05/25 06:51:35;;;;;;;17.15;11.95;;;;;;;12.24;86.16;101367.88;5030600;28;20439;-77
2022/05/25 06:54:01;;;;;;;19.05;12.45;;;;;;;12.32;85.80;101368.16;5041174;28;20025;-79
2022/05/25 06:56:26;;;;;;;18.05;12.43;;;;;;;12.41;86.28;101370.16;5029388;28;20443;-78
2022/05/25 06:58:53;;;;;;;18.48;12.63;;;;;;;12.49;85.97;101374.88;5011228;28;20037;-79
2022/05/25 07:01:20;;;;;;;18.33;12.23;;;;;;;12.65;85.19;101372.75;5034855;28;20029;-79
2022/05/25 07:03:46;;;;;;;17.85;11.32;;;;;;;12.88;84.31;101371.06;5046132;28;20035;-79
2022/05/25 07:06:13;;;;;;;15.98;11.20;;;;;;;12.98;83.17;101379.97;5045539;28;20053;-79
2022/05/25 07:08:38;;;;;;;17.88;10.75;;;;;;;12.98;82.48;101382.63;5026394;28;20397;-79
2022/05/25 07:11:07;;;;;;;21.45;11.18;;;;;;;13.07;82.69;101387.19;5047121;28;20032;-80
2022/05/25 07:13:33;;;;;;;15.50;10.80;;;;;;;13.15;82.14;101386.59;5022474;28;20021;-80
2022/05/25 07:16:01;;;;;;;15.18;11.23;;;;;;;13.21;81.68;101388.84;5015529;28;20469;-80
2022/05/25 07:18:28;;;;;;;16.63;11.57;;;;;;;13.47;81.25;101398.22;5043771;28;20037;-80
2022/05/25 07:20:53;;;;;;;13.95;10.52;;;;;;;13.69;80.72;101397.41;5031799;28;20567;-80
2022/05/25 07:23:19;;;;;;;12.32;10.00;;;;;;;13.90;78.21;101404.63;5039963;28;20021;-80
2022/05/25 07:25:46;;;;;;;13.25;10.52;;;;;;;14.06;77.18;101400.66;5046453;28;20037;-81
2022/05/25 07:28:12;;;;;;;13.50;10.27;;;;;;;14.18;76.45;101400.63;5041827;28;20025;-81
2022/05/25 07:30:37;;;;;;;16.00;10.40;;;;;;;14.43;77.23;101402.19;5040545;28;20033;-80
2022/05/25 07:33:06;;;;;;;12.95;9.90;;;;;;;14.76;75.30;101398.56;5022040;28;20055;-80
2022/05/25 07:35:31;;;;;;;11.90;9.50;;;;;;;14.91;74.29;101392.84;5034738;28;20044;-80
2022/05/25 07:37:58;;;;;;;11.18;9.07;;;;;;;15.02;74.15;101400.72;5022272;28;20425;-80
2022/05/25 07:40:28;;;;;;;13.63;9.07;;;;;;;15.08;74.26;101401.19;5036776;28;20056;-79
2022/05/25 07:42:59;;;;;;;11.25;8.10;;;;;;;15.24;73.32;101404.22;5016945;28;20026;-80
2022/05/25 07:45:25;;;;;;;10.63;7.85;;;;;;;15.63;72.55;101400.84;5043108;28;20090;-82
2022/05/25 07:47:53;;;;;;;11.90;8.07;;;;;;;15.75;71.21;101395.44;5039566;28;20112;-85
2022/05/25 07:50:19;;;;;;;9.40;6.18;;;;;;;16.18;69.91;101405.78;5042146;28;20024;-85
2022/05/25 07:52:44;;;;;;;14.32;6.18;;;;;;;16.40;68.41;101405.53;5039440;28;20358;-85
2022/05/25 07:55:11;;;;;;;9.93;5.97;;;;;;;16.51;67.22;101407.25;5011044;28;20032;-84
2022/05/25 07:57:37;;;;;;;12.07;6.80;;;;;;;16.70;67.34;101404.63;5010712;28;20342;-84
2022/05/25 08:00:05;;;;;;;11.75;5.68;;;;;;;17.15;66.26;101402.22;5040371;28;20032;-85
2022/05/25 08:08:10;;;;;;;7.63;4.47;;;;;;;18.08;63.51;101405.88;5040999;28;20098;-84
2022/05/25 08:10:36;;;;;;;12.52;4.45;;;;;;;18.44;62.30;101409.47;5041207;28;20025;-83
2022/05/25 08:13:06;;;;;;;6.40;4.70;;;;;;;18.57;60.63;101406.41;5043277;28;20386;-85
2022/05/25 08:15:33;;;;;;;6.95;4.40;;;;;;;18.72;59.68;101405.75;5017042;28;20021;-82
2022/05/25 08:17:59;;;;;;;8.55;4.68;;;;;;;18.66;59.89;101400.19;5014540;28;20453;-83
2022/05/25 08:20:26;;;;;;;6.93;4.00;;;;;;;18.92;59.30;101405.59;5045662;28;20029;-83
2022/05/25 08:22:52;;;;;;;7.32;4.13;;;;;;;19.02;58.31;101395.69;5027750;28;20031;-82
2022/05/25 08:25:19;;;;;;;8.80;3.50;;;;;;;18.97;57.99;101404.16;5026787;28;20025;-78
2022/05/25 08:27:45;;;;;;;6.50;3.60;;;;;;;19.02;58.33;101401.00;5042578;28;20041;-78
2022/05/25 08:30:19;;;;;;;7.03;3.47;;;;;;;19.29;58.53;101405.38;5023395;28;20140;-80
2022/05/25 08:32:45;;;;;;;7.72;3.80;;;;;;;19.44;55.98;101400.31;5046788;28;20420;-78
2022/05/25 08:35:11;;;;;;;5.75;3.10;;;;;;;19.63;56.49;101392.97;5036731;28;20021;-79
2022/05/25 08:37:37;;;;;;;9.82;3.53;;;;;;;19.70;55.37;101385.16;5041921;28;20171;-79
2022/05/25 08:40:06;;;;;;;5.03;2.92;;;;;;;19.66;55.01;101395.31;5045099;28;20113;-78
2022/05/25 08:42:43;;;;;;;7.82;3.25;;;;;;;19.64;56.54;101393.78;5042210;28;20131;-78
2022/05/25 08:45:09;;;;;;;6.63;3.30;;;;;;;19.68;54.61;101387.13;5040936;28;20043;-78
2022/05/25 08:47:37;;;;;;;8.10;2.97;;;;;;;19.60;55.35;101384.41;5040489;28;20029;-78
2022/05/25 08:50:03;;;;;;;8.02;3.17;;;;;;;19.44;54.84;101392.31;5043635;28;20032;-78
2022/05/25 08:52:28;;;;;;;6.25;3.10;;;;;;;19.25;57.12;101386.19;5026234;28;20074;-79
2022/05/25 08:54:54;;;;;;;8.95;2.80;;;;;;;19.29;54.74;101392.88;5039407;28;20397;-78
2022/05/25 08:57:27;;;;;;;5.72;2.55;;;;;;;19.65;56.25;101384.78;5018174;28;20025;-78
2022/05/25 09:00:13;;;;;;;6.35;2.63;;;;;;;19.72;55.77;101383.16;5035990;28;20032;-78
2022/05/25 09:02:42;;;;;;;4.88;2.25;;;;;;;19.76;52.10;101384.50;5032965;28;20039;-79
2022/05/25 09:05:37;;;;;;;6.28;2.45;;;;;;;19.77;54.54;101388.84;5020665;28;20128;-82
2022/05/25 09:08:37;;;;;;;4.78;2.10;;;;;;;19.83;53.71;101385.53;5038116;28;20115;-82
2022/05/25 09:11:10;;;;;;;4.97;2.05;;;;;;;19.88;52.44;101383.22;5038168;28;20096;-78
2022/05/25 09:13:42;;;;;;;3.83;2.30;;;;;;;19.78;50.92;101384.34;5046578;28;20029;-76
2022/05/25 09:16:16;;;;;;;4.05;1.50;;;;;;;19.53;52.22;101399.38;5046570;28;20036;-76
2022/05/25 09:18:54;;;;;;;5.75;1.67;;;;;;;19.33;52.55;101399.59;5015398;28;20037;-77
2022/05/25 09:21:23;;;;;;;9.95;1.33;;;;;;;18.99;51.48;101401.31;5028594;28;20059;-78
2022/05/25 09:23:51;;;;;;;4.20;1.30;;;;;;;19.02;52.19;101411.69;5040757;28;20024;-77
2022/05/25 09:26:16;;;;;;;4.20;1.50;;;;;;;18.77;50.52;101406.13;5014766;28;20102;-76
2022/05/25 09:28:45;;;;;;;2.90;1.40;;;;;;;18.59;52.72;101415.94;5044653;28;20032;-76
2022/05/25 09:31:15;;;;;;;4.75;1.50;;;;;;;18.33;51.90;101409.66;5017788;28;20052;-76
2022/05/25 09:33:57;;;;;;;4.28;1.40;;;;;;;18.07;53.54;101407.72;5044564;28;20076;-76
2022/05/25 09:36:28;;;;;;;2.65;1.20;;;;;;;17.86;53.21;101415.09;5027614;28;20044;-76
2022/05/25 09:39:04;;;;;;;4.20;1.30;;;;;;;17.80;53.79;101415.69;5043176;28;20440;-76
2022/05/25 09:41:31;;;;;;;3.30;1.10;;;;;;;18.15;52.89;101413.13;5042286;28;20098;-76
2022/05/25 09:43:58;;;;;;;4.22;1.20;;;;;;;18.54;50.32;101406.72;5023867;28;20065;-76
2022/05/25 09:46:34;;;;;;;6.50;1.10;;;;;;;18.96;50.45;101396.31;5020288;28;20207;-84
2022/05/25 09:49:02;;;;;;;4.45;1.30;;;;;;;19.37;50.33;101400.94;5024422;28;20312;-81
2022/05/25 09:51:54;;;;;;;4.75;0.93;;;;;;;19.38;51.91;101407.13;5044175;28;20082;-82
2022/05/25 09:54:26;;;;;;;3.88;1.05;;;;;;;19.04;48.83;101412.38;5044692;28;20047;-80
2022/05/25 10:15:17;;;;;;;4.47;1.15;;;;;;;18.42;52.02;101419.44;5058091;27;20457;-90
2022/05/25 10:17:46;;;;;;;3.63;1.00;;;;;;;18.73;51.44;101412.75;4995991;28;20045;-86
2022/05/25 10:20:43;;;;;;;3.63;1.00;;;;;;;19.12;51.02;101420.44;5019904;28;20025;-87
2022/05/25 10:23:18;;;;;;;3.25;0.93;;;;;;;19.01;48.55;101418.84;5024408;28;20382;-87
2022/05/25 10:25:50;;;;;;;3.92;1.05;;;;;;;18.81;48.58;101421.81;5025305;28;20557;-87
2022/05/25 10:28:36;;;;;;;;;;;;;;;18.96;49.32;101417.63;5027805;28;20045;-86
2022/05/25 10:36:52;;;;;;;;;;;;;;;18.68;50.67;101415.03;5023881;28;20131;-86
2022/05/25 10:39:30;;;;;;;1.63;0.80;;;;;;;18.39;49.92;101409.03;5017529;28;20275;-85
2022/05/25 10:42:06;;;;;;;4.40;0.90;;;;;;;18.29;48.89;101418.94;5017458;28;20030;-85
2022/05/25 10:45:02;;;;;;;5.28;0.80;;;;;;;18.24;50.47;101421.22;4999719;28;20384;-85
2022/05/25 10:47:54;;;;;;;3.25;1.00;;;;;;;18.23;50.48;101416.88;5018428;28;20394;-86
2022/05/25 10:50:32;;;;;;;3.17;0.77;;;;;;;18.20;49.39;101415.34;5007413;23;20060;-85
2022/05/25 10:53:06;;;;;;;5.95;1.05;;;;;;;18.53;49.50;101411.22;4961795;28;20070;-86
2022/05/25 10:55:41;;;;;;;2.05;0.65;;;;;;;18.69;48.98;101405.22;4966375;28;20035;-88
2022/05/25 10:58:22;;;;;;;4.35;0.95;;;;;;;18.56;48.83;101415.41;4966243;28;20038;-87
2022/05/25 11:01:00;;;;;;;4.43;0.80;;;;;;;18.31;48.75;101416.94;4966437;28;20568;-85
2022/05/25 11:04:02;;;;;;;3.65;0.75;;;;;;;18.15;50.57;101415.78;4967225;28;20500;-85
2022/05/25 11:06:57;;;;;;;4.10;0.93;;;;;;;17.99;51.31;101418.25;4945818;28;20129;-85
2022/05/25 11:09:50;;;;;;;2.55;0.80;;;;;;;17.89;50.85;101419.28;4966706;28;20054;-85
2022/05/25 11:12:34;;;;;;;4.10;0.90;;;;;;;18.41;51.71;101413.25;4966723;28;20031;-85
2022/05/25 11:15:28;;;;;;;1.92;0.80;;;;;;;18.86;49.30;101411.56;4959344;28;20045;-86
2022/05/25 11:18:26;;;;;;;3.17;1.00;;;;;;;18.93;48.89;101409.94;4929991;29;20035;-85
2022/05/25 11:21:22;;;;;;;1.65;0.70;;;;;;;18.97;49.46;101403.31;4950955;29;20045;-84
2022/05/25 11:24:21;;;;;;;2.70;0.80;;;;;;;19.31;48.94;101395.41;4952554;29;20515;-85
2022/05/25 11:27:32;;;;;;;1.55;0.60;;;;;;;19.73;47.34;101400.00;4935486;29;20367;-87
2022/05/25 11:30:03;;;;;;;4.95;0.88;;;;;;;20.09;44.63;101389.97;4948246;29;20381;-88
2022/05/25 11:32:57;;;;;;;3.33;0.70;;;;;;;20.26;44.68;101372.97;4951172;29;20031;-89
2022/05/25 11:35:39;;;;;;;1.80;0.60;;;;;;;20.38;42.57;101385.03;4921743;29;20051;-80
2022/05/25 11:38:33;;;;;;;2.72;0.77;;;;;;;20.38;43.42;101379.69;4952419;28;20055;-90
2022/05/25 11:41:26;;;;;;;2.72;1.00;;;;;;;20.38;44.29;101379.69;4952900;29;20350;-80
2022/05/25 11:44:12;;;;;;;0.75;0.70;;;;;;;20.47;43.50;101383.25;4952807;29;20118;-81
2022/05/25 11:46:46;;;;;;;4.20;1.45;;;;;;;20.42;43.53;101375.75;4951205;29;20481;-80
2022/05/25 11:49:30;;;;;;;2.80;0.80;;;;;;;20.27;44.71;101386.19;4953085;28;20062;-80
2022/05/25 11:52:10;;;;;;;5.00;0.90;;;;;;;20.07;44.21;101382.13;4936302;29;20058;-80
2022/05/25 11:55:01;;;;;;;4.32;0.98;;;;;;;20.23;45.09;101379.50;4935723;28;20118;-80
2022/05/25 11:57:30;;;;;;;3.22;0.95;;;;;;;20.17;44.45;101382.81;4952637;28;20038;-90
2022/05/25 12:00:04;;;;;;;2.85;1.10;;;;;;;20.05;44.11;101377.94;4958381;28;20473;-80
2022/05/25 12:03:00;;;;;;;2.97;0.75;;;;;;;20.05;46.10;101394.81;4952636;28;20053;-80
2022/05/25 12:05:55;;;;;;;3.25;1.00;;;;;;;19.98;45.96;101383.91;4954277;28;20035;-80
2022/05/25 12:08:43;;;;;;;5.85;1.00;;;;;;;20.34;45.31;101373.00;4937099;29;20405;-80
2022/05/25 12:11:32;;;;;;;4.38;1.00;;;;;;;20.81;45.61;101377.75;4936226;29;20023;-80
2022/05/25 12:14:14;;;;;;;2.58;0.90;;;;;;;20.77;43.62;101373.75;4953662;29;20030;-80
2022/05/25 12:16:43;;;;;;;3.33;0.93;;;;;;;20.37;42.26;101372.66;4952530;29;20023;-80
2022/05/25 12:19:27;;;;;;;5.03;0.80;;;;;;;20.10;44.60;101383.63;4966066;28;20042;-90
2022/05/25 12:22:08;;;;;;;2.90;0.80;;;;;;;19.76;43.59;101402.34;4956327;28;20090;-78
2022/05/25 12:24:39;;;;;;;2.75;0.57;;;;;;;19.41;42.75;101386.28;4952588;28;20031;-77
2022/05/25 12:27:10;;;;;;;2.42;0.73;;;;;;;19.06;42.92;101392.53;4952675;28;20027;-77
2022/05/25 12:29:51;;;;;;;2.95;0.70;;;;;;;18.96;45.03;101391.81;4962026;28;20035;-77